Whale Watcher II — WDB8211 — position and weather

sailwx.info

Track history (hours):
 
Tides and Currents Weather Stations Pressure Air Temp Water Temp Dewpoint Dewpoint Depression Visibility Wind Speed Wind Dir Waves Ship Positions

Whale Watcher II

Owner: Ronald L. Robbins LLC, Cape May, NJ. More information available from US FCC via Universal Licensing System and Coast Guard Vessel Documentation Center.

Last reported at 2015-Feb-26 21:26 UTC. Time now 2015-Feb-28 20:52 UTC.
Position N 29°55' W 090°06'.

Length 22 m.

Type: Towing. MMSI: 367011790.

Date/timePositionNaut miles runAvg speedWind from/ knotsBaromVisibWave heightAir tempDewpointWater temp
2015-Feb-26 21:26N 29°55' W 090°06'2 1.8
2015-Feb-26 20:29N 29°55' W 090°04'0 0.0
2015-Feb-26 19:33N 29°55' W 090°04'0 0.0
2015-Feb-26 14:10N 29°55' W 090°04'0 0.0
2015-Feb-26 13:22N 29°55' W 090°04'0 0.0
2015-Feb-26 12:16N 29°55' W 090°04'0 0.0
2015-Feb-26 08:33N 29°55' W 090°04'0 0.0
2015-Feb-26 07:31N 29°55' W 090°04'0 0.0
2015-Feb-26 06:31N 29°55' W 090°04'0 0.0
2015-Feb-26 05:32N 29°55' W 090°04'1 1.2
2015-Feb-26 04:33N 29°56' W 090°03'3 2.5
2015-Feb-26 03:17N 29°56' W 089°60'0 0.0
2015-Feb-26 02:30N 29°56' W 089°60'0 0.0
2015-Feb-26 00:19N 29°56' W 089°60'1 0.9
2015-Feb-25 23:33N 29°56' W 090°00'1 0.3
2015-Feb-25 19:28N 29°56' W 089°59'1 0.9
2015-Feb-25 18:13N 29°56' W 090°00'0 0.0
2015-Feb-24 00:24N 29°56' W 089°60'0 0.0
2015-Feb-23 23:12N 29°56' W 090°00'3 4.0
2015-Feb-23 22:32N 29°58' W 090°03'2 2.1
2015-Feb-23 21:29N 29°55' W 090°04'0 0.0
2015-Feb-23 20:33N 29°56' W 090°04'0 0.0
2015-Feb-23 19:33N 29°56' W 090°04'0 0.0
2015-Feb-23 18:27N 29°56' W 090°04'0 0.0
2015-Feb-23 17:33N 29°55' W 090°04'0 0.0
2015-Feb-23 16:33N 29°55' W 090°04'0 0.0
2015-Feb-23 15:33N 29°55' W 090°04'0 0.0
2015-Feb-23 14:33N 29°55' W 090°04'0 0.0
2015-Feb-23 13:31N 29°55' W 090°04'0 0.0
2015-Feb-23 12:31N 29°55' W 090°04'0 0.0
2015-Feb-23 11:14N 29°55' W 090°04'0 0.0
2015-Feb-23 02:33N 29°55' W 090°04'0 0.0
2015-Feb-22 23:23N 29°55' W 090°04'6 0.9
2015-Feb-22 16:15N 29°55' W 089°56'3 0.2
2015-Feb-21 21:28N 29°56' W 089°59'1 0.2
2015-Feb-21 16:21N 29°56' W 090°01'0 0.1
2015-Feb-21 15:22N 29°57' W 090°01'0 0.0
2015-Feb-21 14:16N 29°57' W 090°01'0 0.0
2015-Feb-21 13:21N 29°57' W 090°01'3 3.2
2015-Feb-21 12:29N 29°55' W 090°04'0 0.0
2015-Feb-21 11:33N 29°55' W 090°04'0 0.0
2015-Feb-21 10:33N 29°55' W 090°04'0 0.1
2015-Feb-21 09:28N 29°56' W 090°04'0 0.0
2015-Feb-21 08:33N 29°56' W 090°04'0 0.0
2015-Feb-21 07:31N 29°56' W 090°04'0 0.0
2015-Feb-21 06:33N 29°56' W 090°04'0 0.0
2015-Feb-21 05:30N 29°56' W 090°04'0 0.0
2015-Feb-21 04:33N 29°56' W 090°04'0 0.0
2015-Feb-21 03:33N 29°56' W 090°04'0 0.0
2015-Feb-21 02:33N 29°56' W 090°04'0 0.0
2015-Feb-21 01:22N 29°56' W 090°04'0 0.0
2015-Feb-20 14:32N 29°55' W 090°04'3 1.9
2015-Feb-20 13:13N 29°57' W 090°01'0 0.0
2015-Feb-20 11:06N 29°57' W 090°01'0 0.0
2015-Feb-20 10:28N 29°57' W 090°01'0 0.0
2015-Feb-20 09:30N 29°57' W 090°01'0 0.0
2015-Feb-20 08:31N 29°57' W 090°01'0 0.0
2015-Feb-20 07:32N 29°57' W 090°01'2 2.3
2015-Feb-20 06:32N 29°56' W 090°04'0 0.2
2015-Feb-20 05:32N 29°55' W 090°04'0 0.0
2015-Feb-20 04:31N 29°55' W 090°04'0 0.4
2015-Feb-20 03:32N 29°56' W 090°03'0 0.3
2015-Feb-20 02:32N 29°55' W 090°04'0 0.2
2015-Feb-20 01:33N 29°55' W 090°04'0 0.5
2015-Feb-20 00:33N 29°56' W 090°04'0 0.1
2015-Feb-19 23:33N 29°56' W 090°03'3 0.1
2015-Feb-18 21:32N 29°57' W 090°01'3 1.5
2015-Feb-18 19:31N 29°55' W 090°04'1 0.2
2015-Feb-18 12:33N 29°55' W 090°05'1 1.3
2015-Feb-18 11:31N 29°55' W 090°04'2 2.0
2015-Feb-18 10:32N 29°57' W 090°03'  
Track history (hours):
 
Tides and Currents Weather Stations Pressure Air Temp Water Temp Dewpoint Dewpoint Depression Visibility Wind Speed Wind Dir Waves Ship Positions

Whale Watcher II

Owner: Ronald L. Robbins LLC, Cape May, NJ. More information available from US FCC via Universal Licensing System and Coast Guard Vessel Documentation Center.

Last reported at 2015-Feb-26 21:26 UTC. Time now 2015-Feb-28 20:52 UTC.
Position N 29°55' W 090°06'.

Length 22 m.

Type: Towing. MMSI: 367011790.

Date/timePositionNaut miles runAvg speedWind from/ knotsBaromVisibWave heightAir tempDewpointWater temp
2015-Feb-26 21:26N 29°55' W 090°06'2 1.8
2015-Feb-26 20:29N 29°55' W 090°04'0 0.0
2015-Feb-26 19:33N 29°55' W 090°04'0 0.0
2015-Feb-26 14:10N 29°55' W 090°04'0 0.0
2015-Feb-26 13:22N 29°55' W 090°04'0 0.0
2015-Feb-26 12:16N 29°55' W 090°04'0 0.0
2015-Feb-26 08:33N 29°55' W 090°04'0 0.0
2015-Feb-26 07:31N 29°55' W 090°04'0 0.0
2015-Feb-26 06:31N 29°55' W 090°04'0 0.0
2015-Feb-26 05:32N 29°55' W 090°04'1 1.2
2015-Feb-26 04:33N 29°56' W 090°03'3 2.5
2015-Feb-26 03:17N 29°56' W 089°60'0 0.0
2015-Feb-26 02:30N 29°56' W 089°60'0 0.0
2015-Feb-26 00:19N 29°56' W 089°60'1 0.9
2015-Feb-25 23:33N 29°56' W 090°00'1 0.3
2015-Feb-25 19:28N 29°56' W 089°59'1 0.9
2015-Feb-25 18:13N 29°56' W 090°00'0 0.0
2015-Feb-24 00:24N 29°56' W 089°60'0 0.0
2015-Feb-23 23:12N 29°56' W 090°00'3 4.0
2015-Feb-23 22:32N 29°58' W 090°03'2 2.1
2015-Feb-23 21:29N 29°55' W 090°04'0 0.0
2015-Feb-23 20:33N 29°56' W 090°04'0 0.0
2015-Feb-23 19:33N 29°56' W 090°04'0 0.0
2015-Feb-23 18:27N 29°56' W 090°04'0 0.0
2015-Feb-23 17:33N 29°55' W 090°04'0 0.0
2015-Feb-23 16:33N 29°55' W 090°04'0 0.0
2015-Feb-23 15:33N 29°55' W 090°04'0 0.0
2015-Feb-23 14:33N 29°55' W 090°04'0 0.0
2015-Feb-23 13:31N 29°55' W 090°04'0 0.0
2015-Feb-23 12:31N 29°55' W 090°04'0 0.0
2015-Feb-23 11:14N 29°55' W 090°04'0 0.0
2015-Feb-23 02:33N 29°55' W 090°04'0 0.0
2015-Feb-22 23:23N 29°55' W 090°04'6 0.9
2015-Feb-22 16:15N 29°55' W 089°56'3 0.2
2015-Feb-21 21:28N 29°56' W 089°59'1 0.2
2015-Feb-21 16:21N 29°56' W 090°01'0 0.1
2015-Feb-21 15:22N 29°57' W 090°01'0 0.0
2015-Feb-21 14:16N 29°57' W 090°01'0 0.0
2015-Feb-21 13:21N 29°57' W 090°01'3 3.2
2015-Feb-21 12:29N 29°55' W 090°04'0 0.0
2015-Feb-21 11:33N 29°55' W 090°04'0 0.0
2015-Feb-21 10:33N 29°55' W 090°04'0 0.1
2015-Feb-21 09:28N 29°56' W 090°04'0 0.0
2015-Feb-21 08:33N 29°56' W 090°04'0 0.0
2015-Feb-21 07:31N 29°56' W 090°04'0 0.0
2015-Feb-21 06:33N 29°56' W 090°04'0 0.0
2015-Feb-21 05:30N 29°56' W 090°04'0 0.0
2015-Feb-21 04:33N 29°56' W 090°04'0 0.0
2015-Feb-21 03:33N 29°56' W 090°04'0 0.0
2015-Feb-21 02:33N 29°56' W 090°04'0 0.0
2015-Feb-21 01:22N 29°56' W 090°04'0 0.0
2015-Feb-20 14:32N 29°55' W 090°04'3 1.9
2015-Feb-20 13:13N 29°57' W 090°01'0 0.0
2015-Feb-20 11:06N 29°57' W 090°01'0 0.0
2015-Feb-20 10:28N 29°57' W 090°01'0 0.0
2015-Feb-20 09:30N 29°57' W 090°01'0 0.0
2015-Feb-20 08:31N 29°57' W 090°01'0 0.0
2015-Feb-20 07:32N 29°57' W 090°01'2 2.3
2015-Feb-20 06:32N 29°56' W 090°04'0 0.2
2015-Feb-20 05:32N 29°55' W 090°04'0 0.0
2015-Feb-20 04:31N 29°55' W 090°04'0 0.4
2015-Feb-20 03:32N 29°56' W 090°03'0 0.3
2015-Feb-20 02:32N 29°55' W 090°04'0 0.2
2015-Feb-20 01:33N 29°55' W 090°04'0 0.5
2015-Feb-20 00:33N 29°56' W 090°04'0 0.1
2015-Feb-19 23:33N 29°56' W 090°03'3 0.1
2015-Feb-18 21:32N 29°57' W 090°01'3 1.5
2015-Feb-18 19:31N 29°55' W 090°04'1 0.2
2015-Feb-18 12:33N 29°55' W 090°05'1 1.3
2015-Feb-18 11:31N 29°55' W 090°04'2 2.0
2015-Feb-18 10:32N 29°57' W 090°03'  

Dump ship's entire track history